Terminal Aerodrome Forecast
Issued by NWS

Home | Current Version | Previous Version | Text Only | Print | Product List | Glossary On
Versions: 1 2 3 4 5 6 7 8 9 10 11 12 13 14 15 16 17
000
FTAK31 PAJN 272300
TAFAJN
TAF
PAJN 272327Z 2800/2824 09008KT P6SM VCSH FEW015 BKN035 BKN060
     FM281000 09004KT 6SM BCFG SCT003 OVC060 PROB30 2814/2818 -RA
     FM281800 08008KT P6SM -RA FEW030 OVC060=

USA.gov is the U.S. government's official web portal to all federal, state and local government web resources and services.